sensor_id;sensor_type;location;lat;lon;timestamp;P1;durP1;ratioP1;P2;durP2;ratioP2
53977;SDS011;39886;47.984;-1.586;2022-07-21T00:01:46;2.80;;;2.60;;
53977;SDS011;39886;47.984;-1.586;2022-07-21T00:04:12;2.45;;;2.28;;
53977;SDS011;39886;47.984;-1.586;2022-07-21T00:06:40;3.05;;;2.70;;
53977;SDS011;39886;47.984;-1.586;2022-07-21T00:09:07;2.90;;;2.70;;
53977;SDS011;39886;47.984;-1.586;2022-07-21T00:11:33;2.72;;;2.53;;
53977;SDS011;39886;47.984;-1.586;2022-07-21T00:13:58;4.05;;;2.90;;
53977;SDS011;39886;47.984;-1.586;2022-07-21T00:16:24;2.95;;;2.70;;
53977;SDS011;39886;47.984;-1.586;2022-07-21T00:18:50;2.70;;;2.50;;
53977;SDS011;39886;47.984;-1.586;2022-07-21T00:21:16;2.97;;;2.72;;
53977;SDS011;39886;47.984;-1.586;2022-07-21T00:23:41;3.13;;;2.70;;
53977;SDS011;39886;47.984;-1.586;2022-07-21T00:26:07;2.95;;;2.75;;
53977;SDS011;39886;47.984;-1.586;2022-07-21T00:28:33;3.00;;;2.70;;
53977;SDS011;39886;47.984;-1.586;2022-07-21T00:30:59;2.90;;;2.70;;
53977;SDS011;39886;47.984;-1.586;2022-07-21T00:33:24;2.90;;;2.70;;
53977;SDS011;39886;47.984;-1.586;2022-07-21T00:35:50;2.63;;;2.42;;
53977;SDS011;39886;47.984;-1.586;2022-07-21T00:38:16;2.45;;;2.25;;
53977;SDS011;39886;47.984;-1.586;2022-07-21T00:40:42;2.80;;;2.60;;
53977;SDS011;39886;47.984;-1.586;2022-07-21T00:43:07;2.90;;;2.70;;
53977;SDS011;39886;47.984;-1.586;2022-07-21T00:45:33;2.78;;;2.58;;
53977;SDS011;39886;47.984;-1.586;2022-07-21T00:48:00;3.05;;;2.40;;
53977;SDS011;39886;47.984;-1.586;2022-07-21T00:50:26;3.00;;;2.70;;
53977;SDS011;39886;47.984;-1.586;2022-07-21T00:52:53;2.80;;;2.60;;
53977;SDS011;39886;47.984;-1.586;2022-07-21T00:55:20;2.60;;;2.40;;
53977;SDS011;39886;47.984;-1.586;2022-07-21T00:57:47;2.80;;;2.60;;
53977;SDS011;39886;47.984;-1.586;2022-07-21T01:00:17;2.97;;;2.70;;
53977;SDS011;39886;47.984;-1.586;2022-07-21T01:02:48;2.60;;;2.40;;
53977;SDS011;39886;47.984;-1.586;2022-07-21T01:05:14;2.53;;;2.33;;
53977;SDS011;39886;47.984;-1.586;2022-07-21T01:07:41;2.83;;;2.63;;
53977;SDS011;39886;47.984;-1.586;2022-07-21T01:10:09;2.97;;;2.70;;
53977;SDS011;39886;47.984;-1.586;2022-07-21T01:12:36;2.63;;;2.42;;
53977;SDS011;39886;47.984;-1.586;2022-07-21T01:15:04;3.15;;;2.30;;
53977;SDS011;39886;47.984;-1.586;2022-07-21T01:17:31;3.05;;;2.55;;
53977;SDS011;39886;47.984;-1.586;2022-07-21T01:19:57;2.60;;;2.40;;
53977;SDS011;39886;47.984;-1.586;2022-07-21T01:22:22;2.70;;;2.50;;
53977;SDS011;39886;47.984;-1.586;2022-07-21T01:24:48;2.92;;;2.50;;
53977;SDS011;39886;47.984;-1.586;2022-07-21T01:27:14;2.60;;;2.40;;
53977;SDS011;39886;47.984;-1.586;2022-07-21T01:29:40;2.70;;;2.50;;
53977;SDS011;39886;47.984;-1.586;2022-07-21T01:32:05;3.10;;;2.80;;
53977;SDS011;39886;47.984;-1.586;2022-07-21T01:34:31;2.80;;;2.60;;
53977;SDS011;39886;47.984;-1.586;2022-07-21T01:36:57;2.70;;;2.50;;
53977;SDS011;39886;47.984;-1.586;2022-07-21T01:39:23;3.08;;;2.80;;
53977;SDS011;39886;47.984;-1.586;2022-07-21T01:42:07;2.58;;;2.38;;
53977;SDS011;39886;47.984;-1.586;2022-07-21T01:44:33;2.65;;;2.45;;
53977;SDS011;39886;47.984;-1.586;2022-07-21T01:46:59;2.60;;;2.40;;
53977;SDS011;39886;47.984;-1.586;2022-07-21T01:49:24;2.70;;;2.50;;
53977;SDS011;39886;47.984;-1.586;2022-07-21T01:51:50;2.58;;;2.38;;
53977;SDS011;39886;47.984;-1.586;2022-07-21T01:54:16;2.60;;;2.40;;
53977;SDS011;39886;47.984;-1.586;2022-07-21T01:56:42;2.40;;;2.20;;
53977;SDS011;39886;47.984;-1.586;2022-07-21T01:59:08;2.60;;;2.40;;
53977;SDS011;39886;47.984;-1.586;2022-07-21T02:01:34;2.63;;;2.42;;
53977;SDS011;39886;47.984;-1.586;2022-07-21T02:04:01;2.80;;;2.58;;
53977;SDS011;39886;47.984;-1.586;2022-07-21T02:06:27;2.80;;;2.60;;
53977;SDS011;39886;47.984;-1.586;2022-07-21T02:08:54;2.50;;;2.30;;
53977;SDS011;39886;47.984;-1.586;2022-07-21T02:11:21;2.63;;;2.42;;
53977;SDS011;39886;47.984;-1.586;2022-07-21T02:13:47;2.40;;;2.20;;
53977;SDS011;39886;47.984;-1.586;2022-07-21T02:16:13;2.95;;;2.65;;
53977;SDS011;39886;47.984;-1.586;2022-07-21T02:18:39;2.42;;;2.22;;
53977;SDS011;39886;47.984;-1.586;2022-07-21T02:21:05;2.30;;;2.10;;
53977;SDS011;39886;47.984;-1.586;2022-07-21T02:23:32;2.80;;;2.53;;
53977;SDS011;39886;47.984;-1.586;2022-07-21T02:25:58;2.30;;;2.10;;
53977;SDS011;39886;47.984;-1.586;2022-07-21T02:28:24;2.50;;;2.30;;
53977;SDS011;39886;47.984;-1.586;2022-07-21T02:30:52;2.53;;;2.33;;
53977;SDS011;39886;47.984;-1.586;2022-07-21T02:33:19;2.30;;;2.20;;
53977;SDS011;39886;47.984;-1.586;2022-07-21T02:35:45;2.58;;;2.22;;
53977;SDS011;39886;47.984;-1.586;2022-07-21T02:38:11;2.45;;;2.25;;
53977;SDS011;39886;47.984;-1.586;2022-07-21T02:40:38;2.53;;;2.33;;
53977;SDS011;39886;47.984;-1.586;2022-07-21T02:43:04;3.28;;;2.38;;
53977;SDS011;39886;47.984;-1.586;2022-07-21T02:45:33;2.38;;;2.17;;
53977;SDS011;39886;47.984;-1.586;2022-07-21T02:48:00;2.38;;;2.17;;
53977;SDS011;39886;47.984;-1.586;2022-07-21T02:53:00;2.47;;;2.28;;
53977;SDS011;39886;47.984;-1.586;2022-07-21T02:55:28;2.50;;;2.30;;
53977;SDS011;39886;47.984;-1.586;2022-07-21T03:00:29;2.33;;;2.13;;
53977;SDS011;39886;47.984;-1.586;2022-07-21T03:02:54;2.40;;;2.20;;
53977;SDS011;39886;47.984;-1.586;2022-07-21T03:05:20;2.90;;;2.50;;
53977;SDS011;39886;47.984;-1.586;2022-07-21T03:07:46;2.30;;;2.10;;
53977;SDS011;39886;47.984;-1.586;2022-07-21T03:10:12;2.20;;;2.10;;
53977;SDS011;39886;47.984;-1.586;2022-07-21T03:12:37;2.08;;;1.98;;
53977;SDS011;39886;47.984;-1.586;2022-07-21T03:15:03;2.45;;;2.25;;
53977;SDS011;39886;47.984;-1.586;2022-07-21T03:17:29;2.10;;;1.90;;
53977;SDS011;39886;47.984;-1.586;2022-07-21T03:19:55;2.00;;;1.90;;
53977;SDS011;39886;47.984;-1.586;2022-07-21T03:22:21;2.20;;;2.00;;
53977;SDS011;39886;47.984;-1.586;2022-07-21T03:24:46;2.30;;;2.10;;
53977;SDS011;39886;47.984;-1.586;2022-07-21T03:27:15;2.47;;;2.28;;
53977;SDS011;39886;47.984;-1.586;2022-07-21T03:29:42;2.50;;;2.30;;
53977;SDS011;39886;47.984;-1.586;2022-07-21T03:32:07;2.65;;;2.45;;
53977;SDS011;39886;47.984;-1.586;2022-07-21T03:34:33;2.38;;;2.17;;
53977;SDS011;39886;47.984;-1.586;2022-07-21T03:36:59;2.60;;;2.40;;
53977;SDS011;39886;47.984;-1.586;2022-07-21T03:39:24;1.98;;;1.83;;
53977;SDS011;39886;47.984;-1.586;2022-07-21T03:41:50;2.17;;;1.98;;
53977;SDS011;39886;47.984;-1.586;2022-07-21T03:44:16;2.55;;;2.35;;
53977;SDS011;39886;47.984;-1.586;2022-07-21T03:46:42;2.30;;;2.10;;
53977;SDS011;39886;47.984;-1.586;2022-07-21T03:49:07;2.40;;;2.20;;
53977;SDS011;39886;47.984;-1.586;2022-07-21T03:51:33;2.13;;;1.92;;
53977;SDS011;39886;47.984;-1.586;2022-07-21T03:53:59;1.90;;;1.80;;
53977;SDS011;39886;47.984;-1.586;2022-07-21T03:56:27;2.53;;;2.15;;
53977;SDS011;39886;47.984;-1.586;2022-07-21T03:58:53;2.17;;;1.98;;
53977;SDS011;39886;47.984;-1.586;2022-07-21T04:01:18;2.53;;;2.33;;
53977;SDS011;39886;47.984;-1.586;2022-07-21T04:03:44;2.45;;;2.25;;
53977;SDS011;39886;47.984;-1.586;2022-07-21T04:06:10;1.83;;;1.73;;
53977;SDS011;39886;47.984;-1.586;2022-07-21T04:08:36;2.10;;;1.92;;
53977;SDS011;39886;47.984;-1.586;2022-07-21T04:11:02;2.22;;;2.03;;
53977;SDS011;39886;47.984;-1.586;2022-07-21T04:13:28;2.50;;;2.30;;
53977;SDS011;39886;47.984;-1.586;2022-07-21T04:15:54;2.22;;;2.03;;
53977;SDS011;39886;47.984;-1.586;2022-07-21T04:18:20;1.98;;;1.88;;
53977;SDS011;39886;47.984;-1.586;2022-07-21T04:20:46;2.28;;;2.00;;
53977;SDS011;39886;47.984;-1.586;2022-07-21T04:23:11;2.35;;;2.15;;
53977;SDS011;39886;47.984;-1.586;2022-07-21T04:25:37;2.10;;;1.90;;
53977;SDS011;39886;47.984;-1.586;2022-07-21T04:28:04;2.10;;;2.00;;
53977;SDS011;39886;47.984;-1.586;2022-07-21T04:30:30;2.20;;;2.03;;
53977;SDS011;39886;47.984;-1.586;2022-07-21T04:32:56;2.10;;;1.90;;
53977;SDS011;39886;47.984;-1.586;2022-07-21T04:35:21;2.15;;;2.00;;
53977;SDS011;39886;47.984;-1.586;2022-07-21T04:37:47;2.00;;;1.90;;
53977;SDS011;39886;47.984;-1.586;2022-07-21T04:40:13;2.10;;;1.90;;
53977;SDS011;39886;47.984;-1.586;2022-07-21T04:42:40;2.28;;;2.08;;
53977;SDS011;39886;47.984;-1.586;2022-07-21T04:45:07;2.25;;;1.90;;
53977;SDS011;39886;47.984;-1.586;2022-07-21T04:47:44;2.10;;;1.90;;
53977;SDS011;39886;47.984;-1.586;2022-07-21T04:50:12;2.03;;;1.92;;
53977;SDS011;39886;47.984;-1.586;2022-07-21T04:52:38;2.00;;;1.90;;
53977;SDS011;39886;47.984;-1.586;2022-07-21T04:55:04;2.10;;;2.00;;
53977;SDS011;39886;47.984;-1.586;2022-07-21T04:57:30;2.33;;;2.13;;
53977;SDS011;39886;47.984;-1.586;2022-07-21T04:59:56;1.80;;;1.70;;
53977;SDS011;39886;47.984;-1.586;2022-07-21T05:02:22;2.20;;;2.00;;
53977;SDS011;39886;47.984;-1.586;2022-07-21T05:04:47;2.20;;;2.10;;
53977;SDS011;39886;47.984;-1.586;2022-07-21T05:07:13;1.85;;;1.75;;
53977;SDS011;39886;47.984;-1.586;2022-07-21T05:09:39;2.05;;;1.90;;
53977;SDS011;39886;47.984;-1.586;2022-07-21T05:12:05;1.90;;;1.80;;
53977;SDS011;39886;47.984;-1.586;2022-07-21T05:14:31;2.13;;;2.03;;
53977;SDS011;39886;47.984;-1.586;2022-07-21T05:16:56;2.38;;;2.17;;
53977;SDS011;39886;47.984;-1.586;2022-07-21T05:19:22;1.80;;;1.70;;
53977;SDS011;39886;47.984;-1.586;2022-07-21T05:21:48;2.40;;;2.20;;
53977;SDS011;39886;47.984;-1.586;2022-07-21T05:24:13;2.00;;;1.90;;
53977;SDS011;39886;47.984;-1.586;2022-07-21T05:26:39;1.88;;;1.77;;
53977;SDS011;39886;47.984;-1.586;2022-07-21T05:29:05;2.03;;;1.88;;
53977;SDS011;39886;47.984;-1.586;2022-07-21T05:31:31;2.05;;;1.80;;
53977;SDS011;39886;47.984;-1.586;2022-07-21T05:33:56;2.90;;;2.15;;
53977;SDS011;39886;47.984;-1.586;2022-07-21T05:36:22;1.92;;;1.83;;
53977;SDS011;39886;47.984;-1.586;2022-07-21T05:38:48;2.28;;;2.10;;
53977;SDS011;39886;47.984;-1.586;2022-07-21T05:41:14;1.90;;;1.80;;
53977;SDS011;39886;47.984;-1.586;2022-07-21T05:43:39;2.30;;;2.10;;
53977;SDS011;39886;47.984;-1.586;2022-07-21T05:46:05;2.40;;;2.00;;
53977;SDS011;39886;47.984;-1.586;2022-07-21T05:48:31;2.03;;;1.90;;
53977;SDS011;39886;47.984;-1.586;2022-07-21T05:50:57;2.00;;;1.90;;
53977;SDS011;39886;47.984;-1.586;2022-07-21T05:53:22;2.13;;;1.90;;
53977;SDS011;39886;47.984;-1.586;2022-07-21T05:55:48;1.98;;;1.80;;
53977;SDS011;39886;47.984;-1.586;2022-07-21T05:58:14;2.10;;;1.90;;
53977;SDS011;39886;47.984;-1.586;2022-07-21T06:00:40;1.80;;;1.70;;
53977;SDS011;39886;47.984;-1.586;2022-07-21T06:03:06;2.60;;;2.13;;
53977;SDS011;39886;47.984;-1.586;2022-07-21T06:05:32;1.90;;;1.80;;
53977;SDS011;39886;47.984;-1.586;2022-07-21T06:07:58;2.10;;;1.90;;
53977;SDS011;39886;47.984;-1.586;2022-07-21T06:10:26;1.90;;;1.80;;
53977;SDS011;39886;47.984;-1.586;2022-07-21T06:12:51;1.77;;;1.67;;
53977;SDS011;39886;47.984;-1.586;2022-07-21T06:15:17;2.25;;;2.05;;
53977;SDS011;39886;47.984;-1.586;2022-07-21T06:17:45;1.88;;;1.60;;
53977;SDS011;39886;47.984;-1.586;2022-07-21T06:20:11;2.97;;;1.90;;
53977;SDS011;39886;47.984;-1.586;2022-07-21T06:22:38;2.17;;;1.70;;
53977;SDS011;39886;47.984;-1.586;2022-07-21T06:25:04;1.70;;;1.60;;
53977;SDS011;39886;47.984;-1.586;2022-07-21T06:27:31;2.00;;;1.80;;
53977;SDS011;39886;47.984;-1.586;2022-07-21T06:29:57;1.80;;;1.70;;
53977;SDS011;39886;47.984;-1.586;2022-07-21T06:32:24;1.73;;;1.63;;
53977;SDS011;39886;47.984;-1.586;2022-07-21T06:34:50;1.90;;;1.70;;
53977;SDS011;39886;47.984;-1.586;2022-07-21T06:37:16;3.38;;;2.20;;
53977;SDS011;39886;47.984;-1.586;2022-07-21T06:39:42;3.22;;;2.05;;
53977;SDS011;39886;47.984;-1.586;2022-07-21T06:42:08;3.30;;;2.25;;
53977;SDS011;39886;47.984;-1.586;2022-07-21T06:44:34;2.70;;;2.08;;
53977;SDS011;39886;47.984;-1.586;2022-07-21T06:47:00;4.65;;;2.00;;
53977;SDS011;39886;47.984;-1.586;2022-07-21T06:49:30;6.78;;;2.30;;
53977;SDS011;39886;47.984;-1.586;2022-07-21T06:51:56;4.07;;;2.22;;
53977;SDS011;39886;47.984;-1.586;2022-07-21T06:54:22;5.85;;;2.60;;
53977;SDS011;39886;47.984;-1.586;2022-07-21T06:56:48;5.88;;;2.63;;
53977;SDS011;39886;47.984;-1.586;2022-07-21T06:59:13;8.98;;;2.90;;
53977;SDS011;39886;47.984;-1.586;2022-07-21T07:01:39;6.82;;;2.70;;
53977;SDS011;39886;47.984;-1.586;2022-07-21T07:04:05;5.30;;;2.33;;
53977;SDS011;39886;47.984;-1.586;2022-07-21T07:06:31;8.65;;;2.90;;
53977;SDS011;39886;47.984;-1.586;2022-07-21T07:08:57;8.45;;;2.83;;
53977;SDS011;39886;47.984;-1.586;2022-07-21T07:11:22;5.20;;;2.75;;
53977;SDS011;39886;47.984;-1.586;2022-07-21T07:13:48;7.75;;;2.78;;
53977;SDS011;39886;47.984;-1.586;2022-07-21T07:16:14;23.23;;;5.47;;
53977;SDS011;39886;47.984;-1.586;2022-07-21T07:18:39;20.75;;;4.03;;
53977;SDS011;39886;47.984;-1.586;2022-07-21T07:21:05;8.77;;;3.30;;
53977;SDS011;39886;47.984;-1.586;2022-07-21T07:23:31;14.23;;;3.72;;
53977;SDS011;39886;47.984;-1.586;2022-07-21T07:25:57;11.55;;;3.78;;
53977;SDS011;39886;47.984;-1.586;2022-07-21T07:28:22;9.70;;;3.55;;
53977;SDS011;39886;47.984;-1.586;2022-07-21T07:30:48;11.00;;;3.88;;
53977;SDS011;39886;47.984;-1.586;2022-07-21T07:33:14;11.25;;;3.53;;
53977;SDS011;39886;47.984;-1.586;2022-07-21T07:35:40;15.45;;;4.30;;
53977;SDS011;39886;47.984;-1.586;2022-07-21T07:38:06;6.40;;;3.30;;
53977;SDS011;39886;47.984;-1.586;2022-07-21T07:40:32;13.30;;;4.13;;
53977;SDS011;39886;47.984;-1.586;2022-07-21T07:42:58;10.13;;;3.63;;
53977;SDS011;39886;47.984;-1.586;2022-07-21T07:45:24;10.05;;;3.42;;
53977;SDS011;39886;47.984;-1.586;2022-07-21T07:47:51;11.65;;;3.25;;
53977;SDS011;39886;47.984;-1.586;2022-07-21T07:50:17;14.65;;;4.18;;
53977;SDS011;39886;47.984;-1.586;2022-07-21T07:52:43;15.82;;;4.13;;
53977;SDS011;39886;47.984;-1.586;2022-07-21T07:55:10;13.73;;;3.53;;
53977;SDS011;39886;47.984;-1.586;2022-07-21T07:57:38;15.77;;;3.85;;
53977;SDS011;39886;47.984;-1.586;2022-07-21T08:00:06;29.80;;;5.20;;
53977;SDS011;39886;47.984;-1.586;2022-07-21T08:02:34;15.57;;;4.18;;
53977;SDS011;39886;47.984;-1.586;2022-07-21T08:05:00;13.93;;;3.70;;
53977;SDS011;39886;47.984;-1.586;2022-07-21T08:07:26;13.45;;;4.18;;
53977;SDS011;39886;47.984;-1.586;2022-07-21T08:09:52;9.88;;;3.72;;
53977;SDS011;39886;47.984;-1.586;2022-07-21T08:12:18;14.50;;;3.72;;
53977;SDS011;39886;47.984;-1.586;2022-07-21T08:14:43;15.93;;;3.83;;
53977;SDS011;39886;47.984;-1.586;2022-07-21T08:17:09;13.73;;;4.18;;
53977;SDS011;39886;47.984;-1.586;2022-07-21T08:19:35;14.75;;;4.10;;
53977;SDS011;39886;47.984;-1.586;2022-07-21T08:22:01;8.13;;;3.50;;
53977;SDS011;39886;47.984;-1.586;2022-07-21T08:24:27;8.30;;;3.38;;
53977;SDS011;39886;47.984;-1.586;2022-07-21T08:26:53;13.35;;;4.00;;
53977;SDS011;39886;47.984;-1.586;2022-07-21T08:29:19;12.38;;;3.38;;
53977;SDS011;39886;47.984;-1.586;2022-07-21T08:31:44;9.15;;;3.60;;
53977;SDS011;39886;47.984;-1.586;2022-07-21T08:34:10;6.78;;;3.10;;
53977;SDS011;39886;47.984;-1.586;2022-07-21T08:36:36;8.80;;;3.15;;
53977;SDS011;39886;47.984;-1.586;2022-07-21T08:39:03;12.95;;;3.80;;
53977;SDS011;39886;47.984;-1.586;2022-07-21T08:41:29;10.70;;;3.10;;
53977;SDS011;39886;47.984;-1.586;2022-07-21T08:43:56;12.48;;;3.13;;
53977;SDS011;39886;47.984;-1.586;2022-07-21T08:46:22;9.32;;;3.08;;
53977;SDS011;39886;47.984;-1.586;2022-07-21T08:48:49;11.48;;;3.38;;
53977;SDS011;39886;47.984;-1.586;2022-07-21T08:51:16;6.13;;;2.90;;
53977;SDS011;39886;47.984;-1.586;2022-07-21T08:53:45;12.68;;;3.83;;
53977;SDS011;39886;47.984;-1.586;2022-07-21T08:56:12;24.88;;;4.68;;
53977;SDS011;39886;47.984;-1.586;2022-07-21T08:58:38;6.75;;;3.28;;
53977;SDS011;39886;47.984;-1.586;2022-07-21T09:01:04;8.90;;;3.13;;
53977;SDS011;39886;47.984;-1.586;2022-07-21T09:03:30;9.88;;;3.20;;
53977;SDS011;39886;47.984;-1.586;2022-07-21T09:06:14;11.52;;;3.97;;
53977;SDS011;39886;47.984;-1.586;2022-07-21T09:08:48;11.02;;;3.28;;
53977;SDS011;39886;47.984;-1.586;2022-07-21T09:11:22;13.85;;;3.45;;
53977;SDS011;39886;47.984;-1.586;2022-07-21T09:14:03;11.35;;;3.15;;
53977;SDS011;39886;47.984;-1.586;2022-07-21T09:16:38;16.65;;;3.65;;
53977;SDS011;39886;47.984;-1.586;2022-07-21T09:19:30;16.83;;;4.47;;
53977;SDS011;39886;47.984;-1.586;2022-07-21T09:22:01;30.60;;;4.70;;
53977;SDS011;39886;47.984;-1.586;2022-07-21T09:27:08;25.90;;;3.90;;
53977;SDS011;39886;47.984;-1.586;2022-07-21T09:32:27;12.88;;;3.67;;
53977;SDS011;39886;47.984;-1.586;2022-07-21T09:37:31;13.63;;;3.90;;
53977;SDS011;39886;47.984;-1.586;2022-07-21T09:40:00;10.40;;;3.33;;
53977;SDS011;39886;47.984;-1.586;2022-07-21T09:42:33;12.38;;;3.30;;
53977;SDS011;39886;47.984;-1.586;2022-07-21T09:45:04;8.70;;;2.85;;
53977;SDS011;39886;47.984;-1.586;2022-07-21T09:47:32;12.10;;;2.65;;
53977;SDS011;39886;47.984;-1.586;2022-07-21T09:49:59;10.88;;;2.92;;
53977;SDS011;39886;47.984;-1.586;2022-07-21T09:54:57;14.07;;;3.33;;
53977;SDS011;39886;47.984;-1.586;2022-07-21T09:57:26;6.53;;;2.72;;
53977;SDS011;39886;47.984;-1.586;2022-07-21T09:59:53;7.47;;;2.67;;
53977;SDS011;39886;47.984;-1.586;2022-07-21T10:02:21;6.53;;;2.70;;
53977;SDS011;39886;47.984;-1.586;2022-07-21T10:07:37;4.38;;;2.50;;
53977;SDS011;39886;47.984;-1.586;2022-07-21T10:10:04;3.72;;;2.40;;
53977;SDS011;39886;47.984;-1.586;2022-07-21T10:12:30;5.38;;;2.60;;
53977;SDS011;39886;47.984;-1.586;2022-07-21T10:14:56;8.90;;;2.50;;
53977;SDS011;39886;47.984;-1.586;2022-07-21T10:17:22;4.53;;;2.28;;
53977;SDS011;39886;47.984;-1.586;2022-07-21T10:25:36;5.80;;;2.10;;
53977;SDS011;39886;47.984;-1.586;2022-07-21T10:30:46;5.40;;;2.40;;
53977;SDS011;39886;47.984;-1.586;2022-07-21T10:33:15;3.22;;;2.17;;
53977;SDS011;39886;47.984;-1.586;2022-07-21T10:35:48;3.47;;;2.10;;
53977;SDS011;39886;47.984;-1.586;2022-07-21T10:40:50;4.10;;;2.42;;
53977;SDS011;39886;47.984;-1.586;2022-07-21T10:43:35;4.90;;;2.42;;
53977;SDS011;39886;47.984;-1.586;2022-07-21T10:46:02;3.80;;;2.45;;
53977;SDS011;39886;47.984;-1.586;2022-07-21T10:51:12;4.85;;;2.50;;
53977;SDS011;39886;47.984;-1.586;2022-07-21T10:53:39;5.40;;;2.20;;
53977;SDS011;39886;47.984;-1.586;2022-07-21T10:56:06;5.22;;;2.65;;
53977;SDS011;39886;47.984;-1.586;2022-07-21T10:58:39;11.05;;;2.90;;
53977;SDS011;39886;47.984;-1.586;2022-07-21T11:01:08;5.10;;;2.40;;
53977;SDS011;39886;47.984;-1.586;2022-07-21T11:03:44;6.45;;;2.58;;
53977;SDS011;39886;47.984;-1.586;2022-07-21T11:22:18;4.30;;;2.60;;
53977;SDS011;39886;47.984;-1.586;2022-07-21T11:25:05;2.08;;;1.88;;
53977;SDS011;39886;47.984;-1.586;2022-07-21T11:27:34;4.95;;;2.55;;
53977;SDS011;39886;47.984;-1.586;2022-07-21T11:30:05;10.38;;;2.38;;
53977;SDS011;39886;47.984;-1.586;2022-07-21T11:32:33;6.40;;;2.58;;
53977;SDS011;39886;47.984;-1.586;2022-07-21T11:35:00;4.45;;;2.25;;
53977;SDS011;39886;47.984;-1.586;2022-07-21T11:37:31;3.88;;;2.20;;
53977;SDS011;39886;47.984;-1.586;2022-07-21T11:39:57;4.35;;;2.10;;
53977;SDS011;39886;47.984;-1.586;2022-07-21T11:42:24;2.75;;;2.13;;
53977;SDS011;39886;47.984;-1.586;2022-07-21T11:44:51;4.40;;;2.42;;
53977;SDS011;39886;47.984;-1.586;2022-07-21T11:47:17;3.10;;;2.38;;
53977;SDS011;39886;47.984;-1.586;2022-07-21T11:49:45;4.32;;;2.30;;
53977;SDS011;39886;47.984;-1.586;2022-07-21T11:52:14;4.13;;;2.17;;
53977;SDS011;39886;47.984;-1.586;2022-07-21T11:57:12;5.55;;;2.30;;
53977;SDS011;39886;47.984;-1.586;2022-07-21T11:59:40;5.05;;;2.70;;
53977;SDS011;39886;47.984;-1.586;2022-07-21T12:02:10;4.60;;;2.28;;
53977;SDS011;39886;47.984;-1.586;2022-07-21T12:04:42;3.08;;;2.40;;
53977;SDS011;39886;47.984;-1.586;2022-07-21T12:09:46;4.95;;;2.50;;
53977;SDS011;39886;47.984;-1.586;2022-07-21T12:12:33;3.40;;;2.40;;
53977;SDS011;39886;47.984;-1.586;2022-07-21T12:15:17;2.92;;;2.22;;
53977;SDS011;39886;47.984;-1.586;2022-07-21T12:17:52;5.38;;;2.40;;
53977;SDS011;39886;47.984;-1.586;2022-07-21T12:20:28;5.10;;;2.58;;
53977;SDS011;39886;47.984;-1.586;2022-07-21T12:23:00;5.85;;;2.45;;
53977;SDS011;39886;47.984;-1.586;2022-07-21T12:25:32;4.95;;;2.35;;
53977;SDS011;39886;47.984;-1.586;2022-07-21T12:28:03;2.75;;;2.25;;
53977;SDS011;39886;47.984;-1.586;2022-07-21T12:33:19;5.60;;;2.53;;
53977;SDS011;39886;47.984;-1.586;2022-07-21T12:38:35;3.95;;;2.50;;
53977;SDS011;39886;47.984;-1.586;2022-07-21T12:41:01;3.40;;;2.20;;
53977;SDS011;39886;47.984;-1.586;2022-07-21T12:43:27;6.22;;;2.53;;
53977;SDS011;39886;47.984;-1.586;2022-07-21T12:45:55;6.28;;;2.58;;
53977;SDS011;39886;47.984;-1.586;2022-07-21T12:48:24;4.90;;;2.45;;
53977;SDS011;39886;47.984;-1.586;2022-07-21T12:50:59;6.03;;;2.15;;
53977;SDS011;39886;47.984;-1.586;2022-07-21T12:53:35;8.35;;;2.40;;
53977;SDS011;39886;47.984;-1.586;2022-07-21T12:56:03;3.38;;;2.30;;
53977;SDS011;39886;47.984;-1.586;2022-07-21T12:58:30;4.43;;;2.40;;
53977;SDS011;39886;47.984;-1.586;2022-07-21T13:00:56;8.30;;;2.45;;
53977;SDS011;39886;47.984;-1.586;2022-07-21T13:03:21;14.48;;;3.10;;
53977;SDS011;39886;47.984;-1.586;2022-07-21T13:05:48;4.35;;;2.72;;
53977;SDS011;39886;47.984;-1.586;2022-07-21T13:08:13;7.78;;;2.13;;
53977;SDS011;39886;47.984;-1.586;2022-07-21T13:10:39;4.93;;;2.20;;
53977;SDS011;39886;47.984;-1.586;2022-07-21T13:13:05;3.17;;;2.20;;
53977;SDS011;39886;47.984;-1.586;2022-07-21T13:15:31;7.57;;;2.42;;
53977;SDS011;39886;47.984;-1.586;2022-07-21T13:17:57;4.78;;;2.22;;
53977;SDS011;39886;47.984;-1.586;2022-07-21T13:20:23;5.10;;;2.15;;
53977;SDS011;39886;47.984;-1.586;2022-07-21T13:22:48;4.68;;;2.10;;
53977;SDS011;39886;47.984;-1.586;2022-07-21T13:25:14;3.92;;;2.33;;
53977;SDS011;39886;47.984;-1.586;2022-07-21T13:27:40;11.95;;;3.53;;
53977;SDS011;39886;47.984;-1.586;2022-07-21T13:30:06;4.65;;;2.40;;
53977;SDS011;39886;47.984;-1.586;2022-07-21T13:32:33;5.85;;;2.17;;
53977;SDS011;39886;47.984;-1.586;2022-07-21T13:34:59;5.97;;;2.00;;
53977;SDS011;39886;47.984;-1.586;2022-07-21T13:37:26;5.00;;;2.17;;
53977;SDS011;39886;47.984;-1.586;2022-07-21T13:39:51;7.85;;;2.08;;
53977;SDS011;39886;47.984;-1.586;2022-07-21T13:42:17;6.90;;;2.20;;
53977;SDS011;39886;47.984;-1.586;2022-07-21T13:44:43;4.85;;;2.25;;
53977;SDS011;39886;47.984;-1.586;2022-07-21T13:47:09;5.35;;;2.10;;
53977;SDS011;39886;47.984;-1.586;2022-07-21T13:49:35;6.22;;;1.98;;
53977;SDS011;39886;47.984;-1.586;2022-07-21T13:52:00;6.25;;;2.33;;
53977;SDS011;39886;47.984;-1.586;2022-07-21T13:54:27;7.03;;;2.50;;
53977;SDS011;39886;47.984;-1.586;2022-07-21T13:56:53;5.63;;;2.08;;
53977;SDS011;39886;47.984;-1.586;2022-07-21T13:59:18;4.45;;;2.03;;
53977;SDS011;39886;47.984;-1.586;2022-07-21T14:01:44;4.18;;;2.15;;
53977;SDS011;39886;47.984;-1.586;2022-07-21T14:04:10;4.65;;;2.25;;
53977;SDS011;39886;47.984;-1.586;2022-07-21T14:06:36;6.25;;;2.08;;
53977;SDS011;39886;47.984;-1.586;2022-07-21T14:09:02;3.22;;;1.88;;
53977;SDS011;39886;47.984;-1.586;2022-07-21T14:11:28;3.38;;;1.95;;
53977;SDS011;39886;47.984;-1.586;2022-07-21T14:13:54;4.90;;;2.10;;
53977;SDS011;39886;47.984;-1.586;2022-07-21T14:16:20;3.42;;;2.05;;
53977;SDS011;39886;47.984;-1.586;2022-07-21T14:18:46;5.72;;;2.13;;
53977;SDS011;39886;47.984;-1.586;2022-07-21T14:21:12;10.52;;;2.67;;
53977;SDS011;39886;47.984;-1.586;2022-07-21T14:23:38;6.03;;;2.25;;
53977;SDS011;39886;47.984;-1.586;2022-07-21T14:26:04;3.00;;;1.90;;
53977;SDS011;39886;47.984;-1.586;2022-07-21T14:28:30;6.45;;;2.40;;
53977;SDS011;39886;47.984;-1.586;2022-07-21T14:30:56;7.38;;;2.38;;
53977;SDS011;39886;47.984;-1.586;2022-07-21T14:33:22;15.73;;;2.90;;
53977;SDS011;39886;47.984;-1.586;2022-07-21T14:35:48;7.32;;;2.40;;
53977;SDS011;39886;47.984;-1.586;2022-07-21T14:38:13;7.13;;;2.22;;
53977;SDS011;39886;47.984;-1.586;2022-07-21T14:40:40;6.78;;;2.38;;
53977;SDS011;39886;47.984;-1.586;2022-07-21T14:43:06;7.25;;;2.28;;
53977;SDS011;39886;47.984;-1.586;2022-07-21T14:45:32;4.10;;;2.20;;
53977;SDS011;39886;47.984;-1.586;2022-07-21T14:47:58;4.82;;;2.20;;
53977;SDS011;39886;47.984;-1.586;2022-07-21T14:50:24;3.63;;;2.40;;
53977;SDS011;39886;47.984;-1.586;2022-07-21T14:52:51;5.07;;;2.00;;
53977;SDS011;39886;47.984;-1.586;2022-07-21T14:55:17;5.57;;;2.22;;
53977;SDS011;39886;47.984;-1.586;2022-07-21T14:57:43;4.28;;;1.90;;
53977;SDS011;39886;47.984;-1.586;2022-07-21T15:00:09;8.05;;;2.10;;
53977;SDS011;39886;47.984;-1.586;2022-07-21T15:02:36;6.72;;;2.08;;
53977;SDS011;39886;47.984;-1.586;2022-07-21T15:05:02;6.47;;;2.33;;
53977;SDS011;39886;47.984;-1.586;2022-07-21T15:07:28;3.55;;;2.03;;
53977;SDS011;39886;47.984;-1.586;2022-07-21T15:09:55;4.80;;;2.13;;
53977;SDS011;39886;47.984;-1.586;2022-07-21T15:12:23;3.80;;;2.10;;
53977;SDS011;39886;47.984;-1.586;2022-07-21T15:14:49;3.53;;;1.80;;
53977;SDS011;39886;47.984;-1.586;2022-07-21T15:17:15;2.33;;;1.80;;
53977;SDS011;39886;47.984;-1.586;2022-07-21T15:19:42;3.13;;;2.08;;
53977;SDS011;39886;47.984;-1.586;2022-07-21T15:22:08;5.18;;;2.05;;
53977;SDS011;39886;47.984;-1.586;2022-07-21T15:24:35;4.28;;;1.90;;
53977;SDS011;39886;47.984;-1.586;2022-07-21T15:27:01;2.72;;;1.95;;
53977;SDS011;39886;47.984;-1.586;2022-07-21T15:29:27;5.38;;;1.90;;
53977;SDS011;39886;47.984;-1.586;2022-07-21T15:31:53;10.30;;;2.42;;